Time;durP1;ratioP1;P1;durP2;ratioP2;P2;SDS_P1;SDS_P2;PMS_P1;PMS_P2;Temp;Humidity;BMP_temperature;BMP_pressure;BME280_temperature;BME280_humidity;BME280_pressure;Samples;Min_cycle;Max_cycle;Signal;HPM_P1;HPM_P2
2022/11/16 00:01:03;;;;;;;;;;;;;;;10.40;100.00;99738.16;4972330;28;19918;-63
2022/11/16 00:03:29;;;;;;;;;;;;;;;10.39;100.00;99730.22;4972373;28;19917;-63
2022/11/16 00:05:58;;;;;;;;;;;;;;;10.40;100.00;99723.53;4972398;28;19985;-63
2022/11/16 00:08:23;;;;;;;;;;;;;;;10.40;100.00;99723.53;4972898;28;20000;-63
2022/11/16 00:10:48;;;;;;;;;;;;;;;10.41;100.00;99727.94;4972657;28;20319;-63
2022/11/16 00:13:14;;;;;;;;;;;;;;;10.40;100.00;99729.06;4972325;28;20333;-64
2022/11/16 00:15:39;;;;;;;;;;;;;;;10.39;100.00;99724.69;4972402;28;20445;-64
2022/11/16 00:18:04;;;;;;;;;;;;;;;10.39;100.00;99721.91;4971956;28;19989;-67
2022/11/16 00:20:29;;;;;;;;;;;;;;;10.40;100.00;99726.31;4973756;28;20293;-66
2022/11/16 00:22:54;;;;;;;;;;;;;;;10.40;100.00;99731.84;4976021;28;19914;-66
2022/11/16 00:25:20;;;;;;;;;;;;;;;10.39;100.00;99728.25;4975893;28;19921;-66
2022/11/16 00:27:45;;;;;;;;;;;;;;;10.40;100.00;99743.69;4976022;28;19932;-66
2022/11/16 00:30:10;;;;;;;;;;;;;;;10.40;100.00;99748.44;4975953;28;19914;-65
2022/11/16 00:32:35;;;;;;;;;;;;;;;10.39;100.00;99742.06;4975820;28;19972;-65
2022/11/16 00:35:00;;;;;;;;;;;;;;;10.38;100.00;99734.94;4973655;28;19989;-66
2022/11/16 00:37:26;;;;;;;;;;;;;;;10.40;100.00;99735.41;4973962;28;20230;-66
2022/11/16 00:39:51;;;;;;;;;;;;;;;10.41;100.00;99734.25;4975552;28;19914;-66
2022/11/16 00:42:16;;;;;;;;;;;;;;;10.41;100.00;99727.94;4975568;28;19914;-66
2022/11/16 00:44:41;;;;;;;;;;;;;;;10.41;100.00;99739.78;4975621;28;19921;-66
2022/11/16 00:47:06;;;;;;;;;;;;;;;10.39;100.00;99741.28;4975531;28;19921;-66
2022/11/16 00:49:32;;;;;;;;;;;;;;;10.38;100.00;99748.75;4974308;28;19965;-66
2022/11/16 00:51:57;;;;;;;;;;;;;;;10.38;100.00;99736.88;4975589;28;20006;-65
2022/11/16 00:54:22;;;;;;;;;;;;;;;10.37;100.00;99733.31;4975424;28;19918;-67
2022/11/16 00:56:47;;;;;;;;;;;;;;;10.38;100.00;99723.06;4975645;28;19925;-67
2022/11/16 00:59:12;;;;;;;;;;;;;;;10.38;100.00;99723.88;4975491;28;20311;-67
2022/11/16 01:01:38;;;;;;;;;;;;;;;10.37;100.00;99713.09;4975314;28;19922;-68
2022/11/16 01:04:03;;;;;;;;;;;;;;;10.37;100.00;99705.66;4974029;28;19924;-68
2022/11/16 01:06:28;;;;;;;;;;;;;;;10.38;100.00;99706.47;4975448;28;19914;-68
2022/11/16 01:08:53;;;;;;;;;;;;;;;10.39;100.00;99705.31;4975405;28;20290;-68
2022/11/16 01:14:03;;;;;;;;;;;;;;;10.38;100.00;99703.69;4975847;28;19921;-69
2022/11/16 01:16:29;;;;;;;;;;;;;;;10.38;100.00;99707.28;4975567;28;19961;-68
2022/11/16 01:18:54;;;;;;;;;;;;;;;10.37;100.00;99697.38;4975168;28;19918;-69
2022/11/16 01:21:20;;;;;;;;;;;;;;;10.39;100.00;99697.84;4975673;28;19969;-69
2022/11/16 01:23:45;;;;;;;;;;;;;;;10.38;100.00;99707.28;4975293;28;19960;-68
2022/11/16 01:26:10;;;;;;;;;;;;;;;10.40;100.00;99712.47;4975506;28;20247;-69
2022/11/16 01:28:35;;;;;;;;;;;;;;;10.38;100.00;99715.59;4975109;28;20340;-69
2022/11/16 01:31:01;;;;;;;;;;;;;;;10.38;100.00;99703.69;4971492;28;20624;-67
2022/11/16 01:33:26;;;;;;;;;;;;;;;10.36;100.00;99684.66;4974775;28;20212;-68
2022/11/16 01:35:52;;;;;;;;;;;;;;;10.36;100.00;99689.38;4974946;28;20397;-69
2022/11/16 01:38:17;;;;;;;;;;;;;;;10.36;100.00;99690.19;4975214;28;19918;-69
2022/11/16 01:40:42;;;;;;;;;;;;;;;10.34;100.00;99684.19;4975183;28;19929;-69
2022/11/16 01:43:37;;;;;;;;;;;;;;;10.34;100.00;99692.47;4975054;28;19969;-69
2022/11/16 01:46:02;;;;;;;;;;;;;;;10.33;100.00;99688.09;4961788;28;19914;-69
2022/11/16 01:48:28;;;;;;;;;;;;;;;10.34;100.00;99680.63;4974796;28;19917;-69
2022/11/16 01:50:56;;;;;;;;;;;;;;;10.33;100.00;99679.78;4974699;28;19925;-70
2022/11/16 01:53:22;;;;;;;;;;;;;;;10.35;100.00;99676.69;4974581;28;19958;-70
2022/11/16 01:55:47;;;;;;;;;;;;;;;10.36;100.00;99673.59;4974506;28;19968;-70
2022/11/16 01:58:14;;;;;;;;;;;;;;;10.36;100.00;99676.38;4974253;28;19954;-72
2022/11/16 02:00:39;;;;;;;;;;;;;;;10.38;100.00;99679.66;4974385;28;19925;-70
2022/11/16 02:03:04;;;;;;;;;;;;;;;10.39;100.00;99674.91;4974288;28;19914;-71
2022/11/16 02:05:37;;;;;;;;;;;;;;;10.41;100.00;99672.63;4974021;28;19914;-71
2022/11/16 02:11:19;;;;;;;;;;;;;;;10.43;100.00;99671.16;4974339;28;20387;-71
2022/11/16 02:13:44;;;;;;;;;;;;;;;10.44;100.00;99664.47;4961176;28;20428;-71
2022/11/16 02:16:12;;;;;;;;;;;;;;;10.45;100.00;99663.34;4973982;28;19922;-68
2022/11/16 02:18:57;;;;;;;;;;;;;;;10.47;100.00;99659.44;4974009;28;19922;-67
2022/11/16 02:21:32;;;;;;;;;;;;;;;10.48;100.00;99650.00;4973411;28;19914;-66
2022/11/16 02:24:15;;;;;;;;;;;;;;;10.50;100.00;99659.56;4973649;28;19918;-66
2022/11/16 02:26:46;;;;;;;;;;;;;;;10.52;100.00;99664.75;4973736;28;19940;-66
2022/11/16 02:29:17;;;;;;;;;;;;;;;10.51;100.00;99658.44;4970034;28;19936;-66
2022/11/16 02:32:04;;;;;;;;;;;;;;;10.48;100.00;99653.56;4973772;28;19936;-67
2022/11/16 02:34:33;;;;;;;;;;;;;;;10.50;100.00;99653.22;4973607;28;19978;-67
2022/11/16 02:36:59;;;;;;;;;;;;;;;10.51;100.00;99654.84;4972199;28;19914;-67
2022/11/16 02:39:26;;;;;;;;;;;;;;;10.51;100.00;99650.13;4973424;28;20334;-67
2022/11/16 02:41:52;;;;;;;;;;;;;;;10.50;100.00;99665.09;4973375;28;19925;-69
2022/11/16 02:44:19;;;;;;;;;;;;;;;10.50;100.00;99658.75;4973070;28;20380;-68
2022/11/16 02:46:46;;;;;;;;;;;;;;;10.51;100.00;99657.59;4973430;28;20020;-68
2022/11/16 02:49:16;;;;;;;;;;;;;;;10.52;100.00;99662.81;4988147;28;20019;-69
2022/11/16 02:51:43;;;;;;;;;;;;;;;10.51;100.00;99654.84;4973379;28;19922;-68
2022/11/16 02:54:15;;;;;;;;;;;;;;;10.53;100.00;99664.41;4973300;28;19921;-70
2022/11/16 02:56:51;;;;;;;;;;;;;;;10.52;100.00;99670.28;4973382;28;20367;-70
2022/11/16 02:59:16;;;;;;;;;;;;;;;10.53;100.00;99669.16;4973103;28;20374;-70
2022/11/16 03:01:48;;;;;;;;;;;;;;;10.52;100.00;99667.53;4973021;28;19973;-70
2022/11/16 03:04:17;;;;;;;;;;;;;;;10.51;100.00;99671.44;4973030;28;19920;-67
2022/11/16 03:06:45;;;;;;;;;;;;;;;10.52;100.00;99668.34;4972995;28;20005;-66
2022/11/16 03:09:16;;;;;;;;;;;;;;;10.54;100.00;99681.81;4972945;28;20004;-66
2022/11/16 03:11:59;;;;;;;;;;;;;;;10.53;100.00;99685.72;4971582;28;19960;-68
2022/11/16 03:14:43;;;;;;;;;;;;;;;10.50;100.00;99676.16;4972895;28;19944;-67
2022/11/16 03:17:13;;;;;;;;;;;;;;;10.50;100.00;99669.81;4972801;28;19921;-68
2022/11/16 03:19:42;;;;;;;;;;;;;;;10.53;100.00;99669.16;4972721;28;19921;-68
2022/11/16 03:22:19;;;;;;;;;;;;;;;10.49;100.00;99674.53;4972753;28;20374;-68
2022/11/16 03:24:44;;;;;;;;;;;;;;;10.47;100.00;99670.50;4972696;28;19922;-67
2022/11/16 03:27:19;;;;;;;;;;;;;;;10.48;100.00;99669.34;4972847;28;19914;-67
2022/11/16 03:29:45;;;;;;;;;;;;;;;10.44;100.00;99663.66;4972681;28;19917;-68
2022/11/16 03:32:15;;;;;;;;;;;;;;;10.43;100.00;99662.84;4972674;28;20384;-69
2022/11/16 03:34:44;;;;;;;;;;;;;;;10.42;100.00;99675.06;4971996;28;20342;-69
2022/11/16 03:37:10;;;;;;;;;;;;;;;10.42;100.00;99683.34;4969687;28;19922;-68
2022/11/16 03:39:37;;;;;;;;;;;;;;;10.39;100.00;99672.94;4972439;28;19965;-67
2022/11/16 03:42:04;;;;;;;;;;;;;;;10.37;100.00;99678.03;4972702;28;19914;-66
2022/11/16 03:44:30;;;;;;;;;;;;;;;10.34;100.00;99675.88;4972480;28;19973;-67
2022/11/16 03:46:55;;;;;;;;;;;;;;;10.30;100.00;99695.09;4972433;28;19917;-66
2022/11/16 03:49:21;;;;;;;;;;;;;;;10.28;100.00;99691.06;4972459;28;19918;-67
2022/11/16 03:51:47;;;;;;;;;;;;;;;10.24;100.00;99696.44;4972621;28;19968;-66
2022/11/16 03:54:12;;;;;;;;;;;;;;;10.21;100.00;99690.72;4972452;28;19953;-67
2022/11/16 03:56:37;;;;;;;;;;;;;;;10.20;100.00;99694.66;4975889;28;19920;-66
2022/11/16 03:59:02;;;;;;;;;;;;;;;10.18;100.00;99705.25;4976405;28;19922;-67
2022/11/16 04:01:28;;;;;;;;;;;;;;;10.16;100.00;99705.56;4976308;28;20336;-69
2022/11/16 04:03:53;;;;;;;;;;;;;;;10.14;100.00;99710.63;4976365;28;19964;-69
2022/11/16 04:25:48;;;;;;;;;;;;;;;9.89;100.00;99718.66;4976157;28;19925;-68
2022/11/16 04:28:17;;;;;;;;;;;;;;;9.89;100.00;99726.13;4976041;28;19961;-67
2022/11/16 04:38:59;;;;;;;;;;;;;;;9.80;100.00;99715.94;4979117;28;20298;-69
2022/11/16 04:44:08;;;;;;;;;;;;;;;9.86;100.00;99727.63;4981021;28;19968;-69
2022/11/16 04:49:17;;;;;;;;;;;;;;;9.79;100.00;99738.31;4977491;28;19968;-69
2022/11/16 04:51:42;;;;;;;;;;;;;;;9.75;100.00;99738.19;4976409;28;19914;-69
2022/11/16 04:54:07;;;;;;;;;;;;;;;9.74;100.00;99742.06;4975951;28;20393;-68
2022/11/16 04:56:32;;;;;;;;;;;;;;;9.71;100.00;99750.19;4976356;28;19972;-69
2022/11/16 04:58:58;;;;;;;;;;;;;;;9.69;100.00;99747.78;4975995;28;20370;-68
2022/11/16 05:02:06;;;;;;;;;;;;;;;9.68;100.00;99746.94;4976360;28;19993;-70
2022/11/16 05:04:08;;;;;;;;;;;;;;;9.59;100.00;99742.59;4975748;28;19925;-69
2022/11/16 05:06:33;;;;;;;;;;;;;;;9.58;100.00;99750.06;4975189;28;19918;-69
2022/11/16 05:08:58;;;;;;;;;;;;;;;9.50;100.00;99761.91;4975237;28;20279;-69
2022/11/16 05:11:24;;;;;;;;;;;;;;;9.50;100.00;99765.50;4975186;28;19917;-68
2022/11/16 05:13:49;;;;;;;;;;;;;;;9.51;100.00;99769.06;4975124;28;19914;-67
2022/11/16 05:16:14;;;;;;;;;;;;;;;9.46;100.00;99769.25;4990052;28;19925;-65
2022/11/16 05:18:39;;;;;;;;;;;;;;;9.44;100.00;99771.50;4974730;28;19918;-66
2022/11/16 05:21:04;;;;;;;;;;;;;;;9.43;100.00;99778.16;4974976;28;19973;-67
2022/11/16 05:26:14;;;;;;;;;;;;;;;9.42;100.00;99777.38;4974903;28;20008;-69
2022/11/16 05:28:39;;;;;;;;;;;;;;;9.38;100.00;99770.84;4975063;28;20002;-69
2022/11/16 05:31:04;;;;;;;;;;;;;;;9.35;100.00;99766.81;4975625;28;20289;-69
2022/11/16 05:33:29;;;;;;;;;;;;;;;9.33;100.00;99771.81;4975925;28;20013;-72
2022/11/16 05:35:55;;;;;;;;;;;;;;;9.30;100.00;99774.44;4972193;28;19961;-71
2022/11/16 05:38:20;;;;;;;;;;;;;;;9.28;100.00;99771.16;4975526;28;20395;-70
2022/11/16 05:40:45;;;;;;;;;;;;;;;9.20;100.00;99765.34;4975635;28;19992;-70
2022/11/16 05:43:10;;;;;;;;;;;;;;;9.15;100.00;99765.50;4975545;28;20378;-70
2022/11/16 05:45:36;;;;;;;;;;;;;;;9.13;100.00;99766.94;4975567;28;20056;-72
2022/11/16 05:48:01;;;;;;;;;;;;;;;9.06;100.00;99761.91;4975119;28;19957;-70
2022/11/16 05:50:26;;;;;;;;;;;;;;;9.00;100.00;99761.25;4975462;28;19920;-71
2022/11/16 05:52:51;;;;;;;;;;;;;;;8.97;100.00;99759.13;4975102;28;19913;-71
2022/11/16 05:55:16;;;;;;;;;;;;;;;8.94;100.00;99764.50;4975028;28;20009;-71
2022/11/16 05:57:41;;;;;;;;;;;;;;;8.90;100.00;99756.84;4974770;28;19936;-70
2022/11/16 06:00:07;;;;;;;;;;;;;;;8.85;100.00;99756.19;4974560;28;20033;-70
2022/11/16 06:02:32;;;;;;;;;;;;;;;8.81;100.00;99764.28;4974421;28;20004;-68
2022/11/16 06:04:57;;;;;;;;;;;;;;;8.74;100.00;99770.25;4974115;28;19914;-66
2022/11/16 06:07:23;;;;;;;;;;;;;;;8.66;100.00;99771.06;4974199;28;20298;-66
2022/11/16 06:09:48;;;;;;;;;;;;;;;8.61;100.00;99784.16;4973951;28;20362;-66
2022/11/16 06:12:13;;;;;;;;;;;;;;;8.53;100.00;99791.28;4973713;28;19953;-66
2022/11/16 06:14:38;;;;;;;;;;;;;;;8.44;100.00;99788.47;4973139;28;19921;-66
2022/11/16 06:17:04;;;;;;;;;;;;;;;8.39;100.00;99791.38;4972951;28;19926;-66
2022/11/16 06:19:29;;;;;;;;;;;;;;;8.33;100.00;99792.63;4972551;28;19921;-66
2022/11/16 06:21:54;;;;;;;;;;;;;;;8.26;100.00;99796.66;4972911;28;19922;-66
2022/11/16 06:24:20;;;;;;;;;;;;;;;8.19;100.00;99787.19;4972498;28;19917;-67
2022/11/16 06:26:46;;;;;;;;;;;;;;;8.15;100.00;99800.81;4972565;28;20358;-66
2022/11/16 06:29:11;;;;;;;;;;;;;;;8.08;100.00;99801.25;4972439;28;20684;-65
2022/11/16 06:31:36;;;;;;;;;;;;;;;8.03;100.00;99800.59;4968753;28;20096;-65
2022/11/16 06:34:02;;;;;;;;;;;;;;;7.96;100.00;99804.56;4972349;28;19917;-65
2022/11/16 06:36:27;;;;;;;;;;;;;;;7.94;100.00;99811.53;4972115;28;20035;-65
2022/11/16 06:38:53;;;;;;;;;;;;;;;7.88;100.00;99813.59;4971765;28;20255;-65
2022/11/16 06:41:18;;;;;;;;;;;;;;;7.84;100.00;99818.09;4970696;28;20374;-68
2022/11/16 06:43:43;;;;;;;;;;;;;;;7.80;100.00;99820.66;4971525;28;19914;-67
2022/11/16 06:46:09;;;;;;;;;;;;;;;7.76;100.00;99819.69;4971259;28;20009;-67
2022/11/16 06:48:34;;;;;;;;;;;;;;;7.74;100.00;99827.44;4971662;28;20053;-67
2022/11/16 06:50:59;;;;;;;;;;;;;;;7.71;100.00;99822.53;4972108;28;19914;-66
2022/11/16 06:53:24;;;;;;;;;;;;;;;7.69;100.00;99826.72;4972980;28;20374;-67
2022/11/16 06:55:50;;;;;;;;;;;;;;;7.67;100.00;99827.06;4969662;28;19968;-67
2022/11/16 06:58:17;;;;;;;;;;;;;;;7.66;100.00;99830.94;4969463;28;20358;-66
2022/11/16 07:00:42;;;;;;;;;;;;;;;7.65;100.00;99840.31;4969127;28;19914;-68
2022/11/16 07:03:07;;;;;;;;;;;;;;;7.62;100.00;99833.50;4983267;28;20623;-66
2022/11/16 07:05:33;;;;;;;;;;;;;;;7.60;100.00;99834.94;4967899;28;19914;-66
2022/11/16 07:07:59;;;;;;;;;;;;;;;7.58;100.00;99837.97;4968516;28;19962;-66
2022/11/16 07:10:25;;;;;;;;;;;;;;;7.58;100.00;99840.72;4970231;28;19914;-66
2022/11/16 07:12:50;;;;;;;;;;;;;;;7.58;100.00;99840.72;4972821;28;19918;-66
2022/11/16 07:15:16;;;;;;;;;;;;;;;7.57;100.00;99836.34;4971770;28;19925;-66
2022/11/16 07:17:41;;;;;;;;;;;;;;;7.56;100.00;99842.97;4972157;28;19925;-66
2022/11/16 07:20:07;;;;;;;;;;;;;;;7.55;100.00;99846.88;4971264;28;19945;-66
2022/11/16 07:22:32;;;;;;;;;;;;;;;7.55;100.00;99846.03;4971554;28;20344;-66
2022/11/16 07:24:57;;;;;;;;;;;;;;;7.54;100.00;99849.91;4972040;28;19961;-66
2022/11/16 07:27:22;;;;;;;;;;;;;;;7.53;100.00;99851.03;4970627;28;19956;-67
2022/11/16 07:29:48;;;;;;;;;;;;;;;7.53;100.00;99849.13;4971939;28;19914;-68
2022/11/16 07:32:13;;;;;;;;;;;;;;;7.52;100.00;99854.91;4972100;28;19990;-67
2022/11/16 07:34:38;;;;;;;;;;;;;;;7.54;100.00;99856.25;4972618;28;19991;-68
2022/11/16 07:37:03;;;;;;;;;;;;;;;7.55;100.00;99862.56;4972638;28;19933;-67
2022/11/16 07:39:28;;;;;;;;;;;;;;;7.56;100.00;99864.19;4972637;28;20028;-68
2022/11/16 07:41:54;;;;;;;;;;;;;;;7.56;100.00;99866.94;4972582;28;20347;-67
2022/11/16 07:44:19;;;;;;;;;;;;;;;7.56;100.00;99870.50;4972535;28;20370;-68
2022/11/16 07:46:44;;;;;;;;;;;;;;;7.58;100.00;99867.44;4972601;28;19968;-67
2022/11/16 07:49:13;;;;;;;;;;;;;;;7.58;100.00;99872.97;4972502;28;20017;-67
2022/11/16 07:51:39;;;;;;;;;;;;;;;7.58;100.00;99872.97;4972535;28;19914;-67
2022/11/16 07:54:05;;;;;;;;;;;;;;;7.62;100.00;99877.53;4972497;28;20061;-68
2022/11/16 07:56:30;;;;;;;;;;;;;;;7.65;100.00;99885.16;4972460;28;19918;-67
2022/11/16 07:58:55;;;;;;;;;;;;;;;7.66;100.00;99885.97;4972279;28;20060;-68
2022/11/16 08:01:20;;;;;;;;;;;;;;;7.65;100.00;99878.84;4972351;28;20015;-68
2022/11/16 08:03:46;;;;;;;;;;;;;;;7.71;100.00;99885.06;4972322;28;19918;-66
2022/11/16 08:06:19;;;;;;;;;;;;;;;7.72;100.00;99890.25;4971207;28;19930;-73
2022/11/16 08:08:45;;;;;;;;;;;;;;;7.74;100.00;99890.75;4972390;28;20385;-66
2022/11/16 08:11:11;;;;;;;;;;;;;;;7.77;100.00;99894.81;4972445;28;19914;-69
2022/11/16 08:13:37;;;;;;;;;;;;;;;7.81;100.00;99898.59;4972300;28;20449;-67
2022/11/16 08:16:04;;;;;;;;;;;;;;;7.83;100.00;99892.75;4972301;28;20044;-58
2022/11/16 08:18:29;;;;;;;;;;;;;;;7.88;100.00;99900.91;4972366;28;20449;-58
2022/11/16 08:20:57;;;;;;;;;;;;;;;7.90;100.00;99904.97;4972495;28;19926;-62
2022/11/16 08:23:22;;;;;;;;;;;;;;;7.96;100.00;99900.16;4972181;28;19918;-60
2022/11/16 08:25:47;;;;;;;;;;;;;;;8.04;100.00;99899.41;4972080;28;19918;-60
2022/11/16 08:28:13;;;;;;;;;;;;;;;8.04;100.00;99901.34;4972220;28;19918;-69
2022/11/16 08:30:38;;;;;;;;;;;;;;;8.06;100.00;99905.44;4986880;28;19954;-69
2022/11/16 08:33:04;;;;;;;;;;;;;;;8.15;100.00;99912.94;4972244;28;19961;-69
2022/11/16 08:35:29;;;;;;;;;;;;;;;8.16;100.00;99898.06;4956539;28;20017;-70
2022/11/16 08:37:55;;;;;;;;;;;;;;;8.17;100.00;99906.00;4951991;28;20388;-69
2022/11/16 08:40:20;;;;;;;;;;;;;;;8.21;100.00;99901.50;4951825;28;20313;-69
2022/11/16 08:42:45;;;;;;;;;;;;;;;8.23;100.00;99903.94;4955127;29;19914;-69
2022/11/16 08:45:10;;;;;;;;;;;;;;;8.25;100.00;99899.72;4955288;29;19918;-69
2022/11/16 08:47:36;;;;;;;;;;;;;;;8.28;100.00;99907.38;4970052;28;19929;-69
2022/11/16 08:50:01;;;;;;;;;;;;;;;8.32;100.00;99906.72;4955212;29;19914;-69
2022/11/16 08:52:26;;;;;;;;;;;;;;;8.35;100.00;99914.38;4955253;28;20049;-69
2022/11/16 08:54:51;;;;;;;;;;;;;;;8.37;100.00;99918.44;4955439;28;19918;-69
2022/11/16 08:57:17;;;;;;;;;;;;;;;8.40;100.00;99919.78;4955410;28;20005;-69
2022/11/16 08:59:42;;;;;;;;;;;;;;;8.43;100.00;99917.19;4955259;28;20409;-69
2022/11/16 09:02:08;;;;;;;;;;;;;;;8.49;100.00;99920.69;4955257;28;19918;-70
2022/11/16 09:04:33;;;;;;;;;;;;;;;8.50;100.00;99927.78;4954246;28;19918;-70
2022/11/16 09:06:58;;;;;;;;;;;;;;;8.52;100.00;99927.50;4955247;29;19918;-70
2022/11/16 09:09:24;;;;;;;;;;;;;;;8.54;100.00;99936.28;4955079;28;20309;-69
2022/11/16 09:11:51;;;;;;;;;;;;;;;8.57;100.00;99930.13;4954912;29;19949;-70
2022/11/16 09:14:16;;;;;;;;;;;;;;;8.59;100.00;99922.34;4955192;28;19918;-69
2022/11/16 09:16:41;;;;;;;;;;;;;;;8.60;100.00;99923.19;4954890;29;20422;-70
2022/11/16 09:19:06;;;;;;;;;;;;;;;8.65;100.00;99929.34;4969657;28;19919;-70
2022/11/16 09:21:32;;;;;;;;;;;;;;;8.69;100.00;99932.31;4955044;29;19914;-70
2022/11/16 09:23:57;;;;;;;;;;;;;;;8.70;100.00;99920.13;4954725;29;19918;-70
2022/11/16 09:26:23;;;;;;;;;;;;;;;8.76;100.00;99927.16;4954761;29;19918;-69
2022/11/16 09:29:02;;;;;;;;;;;;;;;8.77;100.00;99923.25;4954416;28;20394;-70
2022/11/16 09:31:28;;;;;;;;;;;;;;;8.79;100.00;99926.50;4954930;28;19918;-69
2022/11/16 09:33:54;;;;;;;;;;;;;;;8.82;100.00;99925.88;4954603;28;20351;-69
2022/11/16 09:36:20;;;;;;;;;;;;;;;8.86;100.00;99929.63;4954539;28;20057;-70
2022/11/16 09:38:45;;;;;;;;;;;;;;;8.88;100.00;99927.34;4954754;28;19996;-69
2022/11/16 09:41:13;;;;;;;;;;;;;;;8.93;100.00;99923.63;4954776;28;19951;-69
2022/11/16 09:43:46;;;;;;;;;;;;;;;8.99;100.00;99924.31;4954489;28;20274;-69
2022/11/16 09:46:24;;;;;;;;;;;;;;;9.02;100.00;99934.72;4954666;28;19922;-70
2022/11/16 09:48:49;;;;;;;;;;;;;;;9.07;100.00;99931.00;4954669;28;19915;-70
2022/11/16 09:51:16;;;;;;;;;;;;;;;9.05;100.00;99931.34;4954771;28;19968;-69
2022/11/16 09:53:46;;;;;;;;;;;;;;;9.08;100.00;99929.88;4953224;28;19914;-69
2022/11/16 09:56:16;;;;;;;;;;;;;;;9.11;100.00;99934.78;4954571;28;19991;-70
2022/11/16 09:58:51;;;;;;;;;;;;;;;9.13;100.00;99936.06;4954810;28;20014;-69
2022/11/16 10:01:29;;;;;;;;;;;;;;;9.19;100.00;99937.56;4969112;28;20392;-69
2022/11/16 10:04:02;;;;;;;;;;;;;;;9.23;100.00;99940.47;4953424;28;19965;-70
2022/11/16 10:06:37;;;;;;;;;;;;;;;9.29;100.00;99941.97;4954649;28;19914;-70
2022/11/16 10:09:02;;;;;;;;;;;;;;;9.33;100.00;99937.44;4954576;29;19914;-70
2022/11/16 10:11:28;;;;;;;;;;;;;;;9.39;100.00;99940.06;4954603;28;20521;-69
2022/11/16 10:14:09;;;;;;;;;;;;;;;9.41;100.00;99937.78;4954497;28;19922;-70
2022/11/16 10:16:43;;;;;;;;;;;;;;;9.48;100.00;99944.47;4954621;28;19928;-70
2022/11/16 10:19:27;;;;;;;;;;;;;;;9.52;100.00;99939.09;4954143;28;19929;-70
2022/11/16 10:21:58;;;;;;;;;;;;;;;9.54;100.00;99941.56;4954461;29;20358;-70
2022/11/16 10:24:27;;;;;;;;;;;;;;;9.59;100.00;99927.59;4953834;28;20665;-69
2022/11/16 10:27:02;;;;;;;;;;;;;;;9.59;100.00;99930.34;4954011;28;19919;-70
2022/11/16 10:29:47;;;;;;;;;;;;;;;9.63;100.00;99934.13;4954157;28;20437;-69
2022/11/16 10:32:16;;;;;;;;;;;;;;;9.72;100.00;99939.63;4954080;28;20354;-69
2022/11/16 10:34:49;;;;;;;;;;;;;;;9.70;100.00;99928.09;4953815;28;20371;-69
2022/11/16 10:37:14;;;;;;;;;;;;;;;9.72;100.00;99934.94;4954033;28;20017;-69
2022/11/16 10:39:40;;;;;;;;;;;;;;;9.72;100.00;99931.34;4953929;28;19926;-70
2022/11/16 10:42:10;;;;;;;;;;;;;;;9.76;100.00;99924.84;4953496;28;19922;-70
2022/11/16 10:44:40;;;;;;;;;;;;;;;9.77;100.00;99920.97;4968609;28;20471;-70
2022/11/16 10:47:25;;;;;;;;;;;;;;;9.83;100.00;99925.19;4953719;28;19923;-70
2022/11/16 10:50:00;;;;;;;;;;;;;;;9.88;100.00;99926.16;4953680;28;19922;-70
2022/11/16 10:52:26;;;;;;;;;;;;;;;9.90;100.00;99924.72;4953556;28;19970;-70
2022/11/16 10:54:52;;;;;;;;;;;;;;;9.96;100.00;99922.59;4953636;28;20319;-70
2022/11/16 10:57:17;;;;;;;;;;;;;;;9.98;100.00;99918.38;4953780;28;20429;-69
2022/11/16 10:59:44;;;;;;;;;;;;;;;10.05;100.00;99912.34;4953413;28;19914;-69
2022/11/16 11:02:24;;;;;;;;;;;;;;;10.09;100.00;99923.56;4953355;28;20267;-69
2022/11/16 11:05:05;;;;;;;;;;;;;;;10.10;100.00;99926.03;4950425;28;19925;-69
2022/11/16 11:07:38;;;;;;;;;;;;;;;10.14;100.00;99920.66;4951848;29;19914;-70
2022/11/16 11:10:03;;;;;;;;;;;;;;;10.17;100.00;99921.94;4952202;28;19995;-70
2022/11/16 11:12:38;;;;;;;;;;;;;;;10.20;100.00;99922.09;4951985;28;19972;-69
2022/11/16 11:15:09;;;;;;;;;;;;;;;10.23;100.00;99921.47;4952303;28;19921;-70
2022/11/16 11:17:35;;;;;;;;;;;;;;;10.27;100.00;99916.09;4952677;29;20403;-70
2022/11/16 11:20:05;;;;;;;;;;;;;;;10.34;100.00;99910.06;4952954;28;19914;-69
2022/11/16 11:22:31;;;;;;;;;;;;;;;10.52;100.00;99902.56;4952826;28;19960;-70
2022/11/16 11:24:57;;;;;;;;;;;;;;;10.72;100.00;99907.41;4952673;28;19969;-70
2022/11/16 11:27:26;;;;;;;;;;;;;;;10.82;99.80;99906.22;4952875;28;20018;-69
2022/11/16 11:29:53;;;;;;;;;;;;;;;10.82;98.54;99911.75;4953064;28;19926;-69
2022/11/16 11:32:19;;;;;;;;;;;;;;;10.77;97.66;99909.97;4953130;28;19950;-69
2022/11/16 11:34:46;;;;;;;;;;;;;;;10.73;97.24;99906.25;4967609;28;19973;-69
2022/11/16 11:37:20;;;;;;;;;;;;;;;10.78;97.90;99910.81;4952415;28;19954;-69
2022/11/16 11:39:45;;;;;;;;;;;;;;;10.80;97.47;99897.47;4967441;28;19981;-70
2022/11/16 11:42:13;;;;;;;;;;;;;;;10.91;97.55;99903.44;4952541;29;19918;-69
2022/11/16 11:44:49;;;;;;;;;;;;;;;11.03;97.56;99891.66;4952445;28;19973;-70
2022/11/16 11:47:20;;;;;;;;;;;;;;;11.10;96.80;99894.72;4952389;28;20020;-70
2022/11/16 11:49:52;;;;;;;;;;;;;;;11.21;95.59;99895.16;4952204;28;20441;-70
2022/11/16 11:52:24;;;;;;;;;;;;;;;11.28;97.72;99900.19;4952469;28;20672;-70
2022/11/16 11:54:51;;;;;;;;;;;;;;;11.28;94.12;99892.66;4952293;28;19926;-69
2022/11/16 11:57:20;;;;;;;;;;;;;;;11.25;94.50;99887.78;4969296;28;20009;-70
2022/11/16 11:59:46;;;;;;;;;;;;;;;11.27;94.41;99884.72;4971931;28;19918;-70
2022/11/16 12:02:27;;;;;;;;;;;;;;;11.26;93.86;99889.41;4971748;28;20298;-70
2022/11/16 12:05:11;;;;;;;;;;;;;;;11.28;94.12;99886.34;4970651;28;19921;-69
2022/11/16 12:07:46;;;;;;;;;;;;;;;11.23;93.58;99882.59;4971743;28;19918;-71
2022/11/16 12:10:21;;;;;;;;;;;;;;;11.19;91.83;99878.88;4971860;28;19918;-68
2022/11/16 12:12:49;;;;;;;;;;;;;;;11.19;94.00;99873.31;4971739;28;19929;-69
2022/11/16 12:15:17;;;;;;;;;;;;;;;11.26;95.53;99872.81;4972083;28;19921;-69
2022/11/16 12:17:45;;;;;;;;;;;;;;;11.36;94.39;99872.44;4974998;28;19928;-69
2022/11/16 12:20:16;;;;;;;;;;;;;;;11.42;91.62;99873.03;4975738;28;19922;-69
2022/11/16 12:23:00;;;;;;;;;;;;;;;11.39;94.72;99869.00;4957170;28;20016;-69
2022/11/16 12:25:36;;;;;;;;;;;;;;;11.37;96.87;99859.41;4956709;29;19933;-69
2022/11/16 12:28:07;;;;;;;;;;;;;;;11.38;94.15;99849.97;4956699;28;20334;-68
2022/11/16 12:30:36;;;;;;;;;;;;;;;11.45;94.99;99849.41;4956643;29;19918;-68
2022/11/16 12:33:20;;;;;;;;;;;;;;;11.55;96.95;99837.91;4956595;28;20075;-69
2022/11/16 12:36:15;;;;;;;;;;;;;;;11.57;94.19;99841.16;4956543;28;19918;-69
2022/11/16 12:38:43;;;;;;;;;;;;;;;11.60;95.41;99842.44;4947488;28;19914;-68
2022/11/16 12:41:27;;;;;;;;;;;;;;;11.59;94.71;99832.50;4956461;29;20398;-69
2022/11/16 12:43:52;;;;;;;;;;;;;;;11.50;92.96;99833.41;4956043;28;19914;-69
2022/11/16 12:46:29;;;;;;;;;;;;;;;11.44;92.37;99833.91;4954893;29;19918;-69
2022/11/16 12:49:05;;;;;;;;;;;;;;;11.37;94.77;99824.22;4954723;28;19915;-69
2022/11/16 12:51:46;;;;;;;;;;;;;;;11.32;95.03;99818.88;4954536;28;19946;-69
2022/11/16 12:54:25;;;;;;;;;;;;;;;11.34;91.55;99818.53;4954642;28;19918;-69
2022/11/16 12:56:50;;;;;;;;;;;;;;;11.45;94.45;99807.84;4955289;28;19914;-69
2022/11/16 12:59:34;;;;;;;;;;;;;;;11.51;94.64;99807.31;4956082;28;19914;-69
2022/11/16 13:02:11;;;;;;;;;;;;;;;11.47;92.37;99800.84;4956916;28;20382;-68
2022/11/16 13:04:41;;;;;;;;;;;;;;;11.51;92.67;99810.09;4956823;28;19926;-69
2022/11/16 13:07:18;;;;;;;;;;;;;;;11.60;93.38;99806.44;4957275;28;19922;-68
2022/11/16 13:09:46;;;;;;;;;;;;;;;11.58;94.01;99804.00;4957601;29;20004;-69
2022/11/16 13:12:15;;;;;;;;;;;;;;;11.55;94.61;99799.97;4959202;28;19981;-69
2022/11/16 13:14:43;;;;;;;;;;;;;;;11.51;92.78;99800.97;4961215;28;19914;-68
2022/11/16 13:17:13;;;;;;;;;;;;;;;11.47;91.12;99802.78;4962199;28;19924;-68
2022/11/16 13:19:42;;;;;;;;;;;;;;;11.50;93.21;99797.38;4976342;28;19922;-69
2022/11/16 13:22:13;;;;;;;;;;;;;;;11.61;94.55;99799.75;4960342;28;19914;-68
2022/11/16 13:24:46;;;;;;;;;;;;;;;11.66;94.71;99807.88;4957637;28;20353;-69
2022/11/16 13:27:37;;;;;;;;;;;;;;;11.75;94.50;99805.84;4977146;28;19918;-68
2022/11/16 13:30:14;;;;;;;;;;;;;;;11.97;93.78;99792.72;4953323;28;20274;-69